sensor_id;sensor_type;location;lat;lon;timestamp;P1;durP1;ratioP1;P2;durP2;ratioP2
34064;SDS011;20339;49.754;20.158;2023-05-24T00:01:32;10.30;;;7.10;;
34064;SDS011;20339;49.754;20.158;2023-05-24T00:04:05;7.80;;;6.80;;
34064;SDS011;20339;49.754;20.158;2023-05-24T00:06:37;8.30;;;6.80;;
34064;SDS011;20339;49.754;20.158;2023-05-24T00:09:17;9.00;;;6.70;;
34064;SDS011;20339;49.754;20.158;2023-05-24T00:11:56;7.40;;;6.60;;
34064;SDS011;20339;49.754;20.158;2023-05-24T00:14:28;7.90;;;6.30;;
34064;SDS011;20339;49.754;20.158;2023-05-24T00:16:59;9.60;;;6.50;;
34064;SDS011;20339;49.754;20.158;2023-05-24T00:19:35;8.40;;;6.90;;
34064;SDS011;20339;49.754;20.158;2023-05-24T00:22:09;10.70;;;6.30;;
34064;SDS011;20339;49.754;20.158;2023-05-24T00:24:40;9.10;;;6.50;;
34064;SDS011;20339;49.754;20.158;2023-05-24T00:27:12;7.50;;;6.70;;
34064;SDS011;20339;49.754;20.158;2023-05-24T00:29:43;8.00;;;6.50;;
34064;SDS011;20339;49.754;20.158;2023-05-24T00:32:17;9.10;;;6.70;;
34064;SDS011;20339;49.754;20.158;2023-05-24T00:34:50;8.40;;;6.70;;
34064;SDS011;20339;49.754;20.158;2023-05-24T00:37:26;8.90;;;6.50;;
34064;SDS011;20339;49.754;20.158;2023-05-24T00:39:59;7.90;;;6.30;;
34064;SDS011;20339;49.754;20.158;2023-05-24T00:42:34;7.50;;;6.40;;
34064;SDS011;20339;49.754;20.158;2023-05-24T00:45:10;8.20;;;7.40;;
34064;SDS011;20339;49.754;20.158;2023-05-24T00:47:44;7.70;;;6.50;;
34064;SDS011;20339;49.754;20.158;2023-05-24T00:50:16;9.10;;;6.20;;
34064;SDS011;20339;49.754;20.158;2023-05-24T00:52:52;9.60;;;7.60;;
34064;SDS011;20339;49.754;20.158;2023-05-24T00:55:29;8.60;;;6.70;;
34064;SDS011;20339;49.754;20.158;2023-05-24T00:58:02;9.00;;;7.00;;
34064;SDS011;20339;49.754;20.158;2023-05-24T01:00:36;8.40;;;6.60;;
34064;SDS011;20339;49.754;20.158;2023-05-24T01:03:16;7.50;;;6.70;;
34064;SDS011;20339;49.754;20.158;2023-05-24T01:05:49;9.40;;;6.90;;
34064;SDS011;20339;49.754;20.158;2023-05-24T01:08:27;8.50;;;6.50;;
34064;SDS011;20339;49.754;20.158;2023-05-24T01:11:15;7.60;;;5.70;;
34064;SDS011;20339;49.754;20.158;2023-05-24T01:13:57;8.00;;;6.70;;
34064;SDS011;20339;49.754;20.158;2023-05-24T01:16:48;8.50;;;6.80;;
34064;SDS011;20339;49.754;20.158;2023-05-24T01:19:39;7.90;;;6.80;;
34064;SDS011;20339;49.754;20.158;2023-05-24T01:22:27;7.50;;;6.40;;
34064;SDS011;20339;49.754;20.158;2023-05-24T01:25:18;8.90;;;7.50;;
34064;SDS011;20339;49.754;20.158;2023-05-24T01:28:11;7.50;;;6.40;;
34064;SDS011;20339;49.754;20.158;2023-05-24T01:30:50;8.20;;;6.80;;
34064;SDS011;20339;49.754;20.158;2023-05-24T01:33:23;8.90;;;6.70;;
34064;SDS011;20339;49.754;20.158;2023-05-24T01:35:57;7.10;;;5.90;;
34064;SDS011;20339;49.754;20.158;2023-05-24T01:38:29;7.10;;;6.40;;
34064;SDS011;20339;49.754;20.158;2023-05-24T01:41:02;8.40;;;6.70;;
34064;SDS011;20339;49.754;20.158;2023-05-24T01:43:51;7.70;;;6.80;;
34064;SDS011;20339;49.754;20.158;2023-05-24T01:46:36;7.30;;;6.60;;
34064;SDS011;20339;49.754;20.158;2023-05-24T01:49:15;9.10;;;6.70;;
34064;SDS011;20339;49.754;20.158;2023-05-24T01:51:51;7.20;;;6.20;;
34064;SDS011;20339;49.754;20.158;2023-05-24T01:54:36;7.90;;;6.60;;
34064;SDS011;20339;49.754;20.158;2023-05-24T01:57:15;7.50;;;6.70;;
34064;SDS011;20339;49.754;20.158;2023-05-24T01:59:49;7.70;;;6.90;;
34064;SDS011;20339;49.754;20.158;2023-05-24T02:02:22;8.60;;;7.70;;
34064;SDS011;20339;49.754;20.158;2023-05-24T02:04:59;8.80;;;7.90;;
34064;SDS011;20339;49.754;20.158;2023-05-24T02:07:35;8.60;;;7.80;;
34064;SDS011;20339;49.754;20.158;2023-05-24T02:10:12;8.80;;;7.60;;
34064;SDS011;20339;49.754;20.158;2023-05-24T02:12:47;10.40;;;7.80;;
34064;SDS011;20339;49.754;20.158;2023-05-24T02:15:23;7.90;;;7.10;;
34064;SDS011;20339;49.754;20.158;2023-05-24T02:18:02;8.70;;;6.50;;
34064;SDS011;20339;49.754;20.158;2023-05-24T02:20:35;9.70;;;7.00;;
34064;SDS011;20339;49.754;20.158;2023-05-24T02:23:07;8.10;;;7.20;;
34064;SDS011;20339;49.754;20.158;2023-05-24T02:25:38;7.50;;;6.70;;
34064;SDS011;20339;49.754;20.158;2023-05-24T02:28:09;9.00;;;7.70;;
34064;SDS011;20339;49.754;20.158;2023-05-24T02:30:45;10.00;;;7.20;;
34064;SDS011;20339;49.754;20.158;2023-05-24T02:33:16;9.40;;;7.20;;
34064;SDS011;20339;49.754;20.158;2023-05-24T02:35:50;7.90;;;7.10;;
34064;SDS011;20339;49.754;20.158;2023-05-24T02:38:22;9.10;;;7.90;;
34064;SDS011;20339;49.754;20.158;2023-05-24T02:40:53;8.40;;;7.50;;
34064;SDS011;20339;49.754;20.158;2023-05-24T02:43:25;9.60;;;7.90;;
34064;SDS011;20339;49.754;20.158;2023-05-24T02:45:56;8.40;;;7.50;;
34064;SDS011;20339;49.754;20.158;2023-05-24T02:48:27;8.30;;;7.40;;
34064;SDS011;20339;49.754;20.158;2023-05-24T02:50:59;8.10;;;7.30;;
34064;SDS011;20339;49.754;20.158;2023-05-24T02:53:31;10.00;;;7.70;;
34064;SDS011;20339;49.754;20.158;2023-05-24T02:56:02;8.70;;;7.60;;
34064;SDS011;20339;49.754;20.158;2023-05-24T02:58:41;9.00;;;7.50;;
34064;SDS011;20339;49.754;20.158;2023-05-24T03:01:13;10.40;;;8.60;;
34064;SDS011;20339;49.754;20.158;2023-05-24T03:03:50;9.80;;;8.60;;
34064;SDS011;20339;49.754;20.158;2023-05-24T03:06:25;10.50;;;8.80;;
34064;SDS011;20339;49.754;20.158;2023-05-24T03:09:00;10.80;;;9.50;;
34064;SDS011;20339;49.754;20.158;2023-05-24T03:11:34;11.00;;;9.50;;
34064;SDS011;20339;49.754;20.158;2023-05-24T03:14:09;10.40;;;9.30;;
34064;SDS011;20339;49.754;20.158;2023-05-24T03:16:43;10.90;;;9.50;;
34064;SDS011;20339;49.754;20.158;2023-05-24T03:19:16;12.00;;;10.50;;
34064;SDS011;20339;49.754;20.158;2023-05-24T03:21:49;11.00;;;9.80;;
34064;SDS011;20339;49.754;20.158;2023-05-24T03:24:23;10.20;;;9.10;;
34064;SDS011;20339;49.754;20.158;2023-05-24T03:26:54;11.20;;;9.80;;
34064;SDS011;20339;49.754;20.158;2023-05-24T03:29:26;12.90;;;9.40;;
34064;SDS011;20339;49.754;20.158;2023-05-24T03:31:58;10.90;;;9.20;;
34064;SDS011;20339;49.754;20.158;2023-05-24T03:34:30;11.10;;;9.90;;
34064;SDS011;20339;49.754;20.158;2023-05-24T03:37:02;10.80;;;9.50;;
34064;SDS011;20339;49.754;20.158;2023-05-24T03:39:43;10.70;;;9.50;;
34064;SDS011;20339;49.754;20.158;2023-05-24T03:42:18;11.00;;;9.80;;
34064;SDS011;20339;49.754;20.158;2023-05-24T03:44:52;9.30;;;8.30;;
34064;SDS011;20339;49.754;20.158;2023-05-24T03:47:23;11.00;;;9.30;;
34064;SDS011;20339;49.754;20.158;2023-05-24T03:49:54;10.20;;;9.10;;
34064;SDS011;20339;49.754;20.158;2023-05-24T03:52:28;10.60;;;9.50;;
34064;SDS011;20339;49.754;20.158;2023-05-24T03:55:02;12.00;;;10.80;;
34064;SDS011;20339;49.754;20.158;2023-05-24T03:57:34;12.00;;;9.90;;
34064;SDS011;20339;49.754;20.158;2023-05-24T04:00:09;11.10;;;9.80;;
34064;SDS011;20339;49.754;20.158;2023-05-24T04:02:42;13.30;;;11.00;;
34064;SDS011;20339;49.754;20.158;2023-05-24T04:05:14;12.90;;;11.60;;
34064;SDS011;20339;49.754;20.158;2023-05-24T04:07:46;14.50;;;12.40;;
34064;SDS011;20339;49.754;20.158;2023-05-24T04:10:20;19.90;;;17.80;;
34064;SDS011;20339;49.754;20.158;2023-05-24T04:12:51;25.60;;;22.90;;
34064;SDS011;20339;49.754;20.158;2023-05-24T04:15:24;29.10;;;26.00;;
34064;SDS011;20339;49.754;20.158;2023-05-24T04:17:55;29.40;;;26.40;;
34064;SDS011;20339;49.754;20.158;2023-05-24T04:20:29;30.10;;;26.40;;
34064;SDS011;20339;49.754;20.158;2023-05-24T04:23:00;30.40;;;27.30;;
34064;SDS011;20339;49.754;20.158;2023-05-24T04:25:32;29.90;;;26.60;;
34064;SDS011;20339;49.754;20.158;2023-05-24T04:28:06;30.90;;;27.40;;
34064;SDS011;20339;49.754;20.158;2023-05-24T04:30:38;30.00;;;26.90;;
34064;SDS011;20339;49.754;20.158;2023-05-24T04:33:15;32.10;;;28.80;;
34064;SDS011;20339;49.754;20.158;2023-05-24T04:35:46;32.50;;;28.00;;
34064;SDS011;20339;49.754;20.158;2023-05-24T04:38:20;32.30;;;28.40;;
34064;SDS011;20339;49.754;20.158;2023-05-24T04:40:54;32.40;;;28.90;;
34064;SDS011;20339;49.754;20.158;2023-05-24T04:43:25;32.40;;;29.10;;
34064;SDS011;20339;49.754;20.158;2023-05-24T04:46:02;30.90;;;27.80;;
34064;SDS011;20339;49.754;20.158;2023-05-24T04:48:34;33.00;;;29.60;;
34064;SDS011;20339;49.754;20.158;2023-05-24T04:51:09;33.40;;;29.90;;
34064;SDS011;20339;49.754;20.158;2023-05-24T04:53:40;33.00;;;29.80;;
34064;SDS011;20339;49.754;20.158;2023-05-24T04:56:11;31.50;;;28.20;;
34064;SDS011;20339;49.754;20.158;2023-05-24T04:58:44;33.10;;;29.90;;
34064;SDS011;20339;49.754;20.158;2023-05-24T05:01:16;29.80;;;26.70;;
34064;SDS011;20339;49.754;20.158;2023-05-24T05:03:47;33.00;;;29.80;;
34064;SDS011;20339;49.754;20.158;2023-05-24T05:06:18;31.70;;;28.60;;
34064;SDS011;20339;49.754;20.158;2023-05-24T05:08:49;30.60;;;27.60;;
34064;SDS011;20339;49.754;20.158;2023-05-24T05:11:20;31.50;;;28.40;;
34064;SDS011;20339;49.754;20.158;2023-05-24T05:13:52;29.50;;;26.60;;
34064;SDS011;20339;49.754;20.158;2023-05-24T05:16:23;29.70;;;26.90;;
34064;SDS011;20339;49.754;20.158;2023-05-24T05:18:56;30.00;;;27.00;;
34064;SDS011;20339;49.754;20.158;2023-05-24T05:21:27;29.90;;;27.00;;
34064;SDS011;20339;49.754;20.158;2023-05-24T05:24:00;30.90;;;27.80;;
34064;SDS011;20339;49.754;20.158;2023-05-24T05:26:31;31.70;;;28.50;;
34064;SDS011;20339;49.754;20.158;2023-05-24T05:29:02;32.00;;;28.90;;
34064;SDS011;20339;49.754;20.158;2023-05-24T05:31:33;36.70;;;32.80;;
34064;SDS011;20339;49.754;20.158;2023-05-24T05:34:04;38.30;;;34.30;;
34064;SDS011;20339;49.754;20.158;2023-05-24T05:36:37;38.40;;;34.30;;
34064;SDS011;20339;49.754;20.158;2023-05-24T05:39:09;39.50;;;35.20;;
34064;SDS011;20339;49.754;20.158;2023-05-24T05:41:41;43.10;;;38.40;;
34064;SDS011;20339;49.754;20.158;2023-05-24T05:44:13;42.00;;;37.40;;
34064;SDS011;20339;49.754;20.158;2023-05-24T05:46:44;42.60;;;37.80;;
34064;SDS011;20339;49.754;20.158;2023-05-24T05:49:15;44.60;;;36.70;;
34064;SDS011;20339;49.754;20.158;2023-05-24T05:51:47;41.70;;;35.20;;
34064;SDS011;20339;49.754;20.158;2023-05-24T05:54:19;42.60;;;36.20;;
34064;SDS011;20339;49.754;20.158;2023-05-24T05:56:51;43.60;;;36.30;;
34064;SDS011;20339;49.754;20.158;2023-05-24T05:59:22;40.90;;;35.30;;
34064;SDS011;20339;49.754;20.158;2023-05-24T06:01:53;37.50;;;33.20;;
34064;SDS011;20339;49.754;20.158;2023-05-24T06:04:24;39.90;;;33.80;;
34064;SDS011;20339;49.754;20.158;2023-05-24T06:06:55;39.00;;;33.90;;
34064;SDS011;20339;49.754;20.158;2023-05-24T06:09:26;39.90;;;33.70;;
34064;SDS011;20339;49.754;20.158;2023-05-24T06:11:58;39.00;;;33.80;;
34064;SDS011;20339;49.754;20.158;2023-05-24T06:14:29;38.20;;;32.20;;
34064;SDS011;20339;49.754;20.158;2023-05-24T06:17:01;39.30;;;33.20;;
34064;SDS011;20339;49.754;20.158;2023-05-24T06:19:33;38.60;;;32.40;;
34064;SDS011;20339;49.754;20.158;2023-05-24T06:22:05;35.80;;;32.00;;
34064;SDS011;20339;49.754;20.158;2023-05-24T06:24:36;35.70;;;30.80;;
34064;SDS011;20339;49.754;20.158;2023-05-24T06:27:09;34.50;;;29.90;;
34064;SDS011;20339;49.754;20.158;2023-05-24T06:29:40;33.00;;;29.50;;
34064;SDS011;20339;49.754;20.158;2023-05-24T06:32:11;34.40;;;30.70;;
34064;SDS011;20339;49.754;20.158;2023-05-24T06:34:42;36.20;;;32.10;;
34064;SDS011;20339;49.754;20.158;2023-05-24T06:37:14;33.00;;;29.60;;
34064;SDS011;20339;49.754;20.158;2023-05-24T06:39:44;35.40;;;30.70;;
34064;SDS011;20339;49.754;20.158;2023-05-24T06:42:15;32.90;;;29.10;;
34064;SDS011;20339;49.754;20.158;2023-05-24T06:44:46;34.20;;;30.60;;
34064;SDS011;20339;49.754;20.158;2023-05-24T06:47:17;31.00;;;27.80;;
34064;SDS011;20339;49.754;20.158;2023-05-24T06:49:49;30.90;;;27.60;;
34064;SDS011;20339;49.754;20.158;2023-05-24T06:52:21;28.30;;;25.50;;
34064;SDS011;20339;49.754;20.158;2023-05-24T06:54:52;29.40;;;25.60;;
34064;SDS011;20339;49.754;20.158;2023-05-24T06:57:26;29.50;;;25.10;;
34064;SDS011;20339;49.754;20.158;2023-05-24T07:00:00;26.80;;;24.20;;
34064;SDS011;20339;49.754;20.158;2023-05-24T07:02:35;26.60;;;23.70;;
34064;SDS011;20339;49.754;20.158;2023-05-24T07:05:07;33.40;;;29.50;;
34064;SDS011;20339;49.754;20.158;2023-05-24T07:07:39;34.80;;;31.10;;
34064;SDS011;20339;49.754;20.158;2023-05-24T07:10:11;40.10;;;35.70;;
34064;SDS011;20339;49.754;20.158;2023-05-24T07:12:42;36.20;;;32.40;;
34064;SDS011;20339;49.754;20.158;2023-05-24T07:15:13;35.40;;;31.50;;
34064;SDS011;20339;49.754;20.158;2023-05-24T07:17:44;32.40;;;29.20;;
34064;SDS011;20339;49.754;20.158;2023-05-24T07:20:17;32.00;;;28.70;;
34064;SDS011;20339;49.754;20.158;2023-05-24T07:22:48;34.80;;;31.10;;
34064;SDS011;20339;49.754;20.158;2023-05-24T07:25:20;33.10;;;29.30;;
34064;SDS011;20339;49.754;20.158;2023-05-24T07:27:51;34.30;;;30.80;;
34064;SDS011;20339;49.754;20.158;2023-05-24T07:30:22;32.80;;;29.30;;
34064;SDS011;20339;49.754;20.158;2023-05-24T07:32:54;32.30;;;27.80;;
34064;SDS011;20339;49.754;20.158;2023-05-24T07:35:25;31.60;;;28.40;;
34064;SDS011;20339;49.754;20.158;2023-05-24T07:37:58;30.80;;;27.40;;
34064;SDS011;20339;49.754;20.158;2023-05-24T07:40:29;32.00;;;28.60;;
34064;SDS011;20339;49.754;20.158;2023-05-24T07:43:00;34.50;;;30.80;;
34064;SDS011;20339;49.754;20.158;2023-05-24T07:45:31;34.50;;;30.70;;
34064;SDS011;20339;49.754;20.158;2023-05-24T07:48:02;33.30;;;29.80;;
34064;SDS011;20339;49.754;20.158;2023-05-24T07:50:33;35.80;;;32.10;;
34064;SDS011;20339;49.754;20.158;2023-05-24T07:53:05;35.60;;;31.90;;
34064;SDS011;20339;49.754;20.158;2023-05-24T07:55:36;34.00;;;30.40;;
34064;SDS011;20339;49.754;20.158;2023-05-24T07:58:07;34.60;;;31.10;;
34064;SDS011;20339;49.754;20.158;2023-05-24T08:00:39;34.50;;;31.00;;
34064;SDS011;20339;49.754;20.158;2023-05-24T08:03:09;34.20;;;30.70;;
34064;SDS011;20339;49.754;20.158;2023-05-24T08:05:42;34.30;;;30.60;;
34064;SDS011;20339;49.754;20.158;2023-05-24T08:08:13;30.20;;;27.20;;
34064;SDS011;20339;49.754;20.158;2023-05-24T08:10:44;31.20;;;28.00;;
34064;SDS011;20339;49.754;20.158;2023-05-24T08:13:15;32.70;;;29.30;;
34064;SDS011;20339;49.754;20.158;2023-05-24T08:15:46;31.30;;;28.00;;
34064;SDS011;20339;49.754;20.158;2023-05-24T08:18:16;29.50;;;26.50;;
34064;SDS011;20339;49.754;20.158;2023-05-24T08:20:47;28.40;;;25.60;;
34064;SDS011;20339;49.754;20.158;2023-05-24T08:23:19;28.50;;;23.30;;
34064;SDS011;20339;49.754;20.158;2023-05-24T08:25:51;27.10;;;24.10;;
34064;SDS011;20339;49.754;20.158;2023-05-24T08:28:22;25.40;;;22.80;;
34064;SDS011;20339;49.754;20.158;2023-05-24T08:30:54;27.40;;;24.70;;
34064;SDS011;20339;49.754;20.158;2023-05-24T08:33:25;27.20;;;24.30;;
34064;SDS011;20339;49.754;20.158;2023-05-24T08:35:57;26.50;;;23.90;;
34064;SDS011;20339;49.754;20.158;2023-05-24T08:38:28;26.30;;;23.70;;
34064;SDS011;20339;49.754;20.158;2023-05-24T08:40:59;25.80;;;23.10;;
34064;SDS011;20339;49.754;20.158;2023-05-24T08:43:34;23.30;;;21.00;;
34064;SDS011;20339;49.754;20.158;2023-05-24T08:46:06;22.10;;;19.90;;
34064;SDS011;20339;49.754;20.158;2023-05-24T08:48:41;18.60;;;16.10;;
34064;SDS011;20339;49.754;20.158;2023-05-24T08:51:15;15.90;;;14.30;;
34064;SDS011;20339;49.754;20.158;2023-05-24T08:53:49;13.70;;;12.30;;
34064;SDS011;20339;49.754;20.158;2023-05-24T08:56:21;14.80;;;12.00;;
34064;SDS011;20339;49.754;20.158;2023-05-24T08:58:56;11.90;;;10.60;;
34064;SDS011;20339;49.754;20.158;2023-05-24T09:01:27;15.50;;;12.10;;
34064;SDS011;20339;49.754;20.158;2023-05-24T09:04:00;11.90;;;10.60;;
34064;SDS011;20339;49.754;20.158;2023-05-24T09:06:35;12.00;;;10.90;;
34064;SDS011;20339;49.754;20.158;2023-05-24T09:09:13;13.80;;;11.60;;
34064;SDS011;20339;49.754;20.158;2023-05-24T09:11:46;12.70;;;11.40;;
34064;SDS011;20339;49.754;20.158;2023-05-24T09:14:20;13.50;;;12.10;;
34064;SDS011;20339;49.754;20.158;2023-05-24T09:16:51;14.10;;;12.70;;
34064;SDS011;20339;49.754;20.158;2023-05-24T09:19:23;13.20;;;11.80;;
34064;SDS011;20339;49.754;20.158;2023-05-24T09:21:56;13.70;;;12.20;;
34064;SDS011;20339;49.754;20.158;2023-05-24T09:24:27;14.00;;;12.10;;
34064;SDS011;20339;49.754;20.158;2023-05-24T09:26:59;15.20;;;12.80;;
34064;SDS011;20339;49.754;20.158;2023-05-24T09:29:36;14.20;;;12.70;;
34064;SDS011;20339;49.754;20.158;2023-05-24T09:32:13;16.20;;;14.40;;
34064;SDS011;20339;49.754;20.158;2023-05-24T09:34:45;14.90;;;12.60;;
34064;SDS011;20339;49.754;20.158;2023-05-24T09:37:18;14.50;;;13.00;;
34064;SDS011;20339;49.754;20.158;2023-05-24T09:39:50;12.60;;;11.20;;
34064;SDS011;20339;49.754;20.158;2023-05-24T09:42:24;13.60;;;11.90;;
34064;SDS011;20339;49.754;20.158;2023-05-24T09:44:59;12.70;;;11.40;;
34064;SDS011;20339;49.754;20.158;2023-05-24T09:47:33;11.80;;;10.60;;
34064;SDS011;20339;49.754;20.158;2023-05-24T09:50:11;12.00;;;10.50;;
34064;SDS011;20339;49.754;20.158;2023-05-24T09:52:44;13.50;;;11.60;;
34064;SDS011;20339;49.754;20.158;2023-05-24T09:55:16;12.10;;;10.80;;
34064;SDS011;20339;49.754;20.158;2023-05-24T09:58:00;12.90;;;11.60;;
34064;SDS011;20339;49.754;20.158;2023-05-24T10:00:40;12.80;;;11.10;;
34064;SDS011;20339;49.754;20.158;2023-05-24T10:03:12;11.50;;;10.30;;
34064;SDS011;20339;49.754;20.158;2023-05-24T10:05:50;12.10;;;10.10;;
34064;SDS011;20339;49.754;20.158;2023-05-24T10:08:22;13.40;;;11.10;;
34064;SDS011;20339;49.754;20.158;2023-05-24T10:10:56;13.40;;;12.00;;
34064;SDS011;20339;49.754;20.158;2023-05-24T10:13:33;13.60;;;11.60;;
34064;SDS011;20339;49.754;20.158;2023-05-24T10:16:06;12.90;;;11.20;;
34064;SDS011;20339;49.754;20.158;2023-05-24T10:18:38;13.60;;;12.10;;
34064;SDS011;20339;49.754;20.158;2023-05-24T10:21:11;11.80;;;10.50;;
34064;SDS011;20339;49.754;20.158;2023-05-24T10:23:45;12.60;;;10.80;;
34064;SDS011;20339;49.754;20.158;2023-05-24T10:26:26;12.50;;;11.10;;
34064;SDS011;20339;49.754;20.158;2023-05-24T10:29:03;11.40;;;10.00;;
34064;SDS011;20339;49.754;20.158;2023-05-24T10:31:39;10.80;;;9.70;;
34064;SDS011;20339;49.754;20.158;2023-05-24T10:34:12;10.70;;;9.60;;
34064;SDS011;20339;49.754;20.158;2023-05-24T10:36:44;12.10;;;9.40;;
34064;SDS011;20339;49.754;20.158;2023-05-24T10:39:15;10.40;;;9.10;;
34064;SDS011;20339;49.754;20.158;2023-05-24T10:41:51;11.90;;;9.60;;
34064;SDS011;20339;49.754;20.158;2023-05-24T10:44:27;12.20;;;9.00;;
34064;SDS011;20339;49.754;20.158;2023-05-24T10:47:02;9.10;;;8.10;;
34064;SDS011;20339;49.754;20.158;2023-05-24T10:49:38;12.30;;;9.30;;
34064;SDS011;20339;49.754;20.158;2023-05-24T10:52:18;10.00;;;8.90;;
34064;SDS011;20339;49.754;20.158;2023-05-24T10:55:02;9.90;;;8.80;;
34064;SDS011;20339;49.754;20.158;2023-05-24T10:57:36;10.80;;;9.00;;
34064;SDS011;20339;49.754;20.158;2023-05-24T11:00:28;11.00;;;9.40;;
34064;SDS011;20339;49.754;20.158;2023-05-24T11:03:02;10.10;;;9.00;;
34064;SDS011;20339;49.754;20.158;2023-05-24T11:05:49;11.20;;;9.60;;
34064;SDS011;20339;49.754;20.158;2023-05-24T11:08:28;9.80;;;8.80;;
34064;SDS011;20339;49.754;20.158;2023-05-24T11:11:05;9.60;;;8.10;;
34064;SDS011;20339;49.754;20.158;2023-05-24T11:13:38;10.40;;;8.80;;
34064;SDS011;20339;49.754;20.158;2023-05-24T11:16:14;12.80;;;10.70;;
34064;SDS011;20339;49.754;20.158;2023-05-24T11:22:57;11.30;;;9.30;;
34064;SDS011;20339;49.754;20.158;2023-05-24T11:25:31;12.50;;;10.10;;
34064;SDS011;20339;49.754;20.158;2023-05-24T11:28:05;11.30;;;10.00;;
34064;SDS011;20339;49.754;20.158;2023-05-24T11:30:42;11.40;;;9.40;;
34064;SDS011;20339;49.754;20.158;2023-05-24T11:33:15;11.70;;;10.50;;
34064;SDS011;20339;49.754;20.158;2023-05-24T11:35:51;11.80;;;9.90;;
34064;SDS011;20339;49.754;20.158;2023-05-24T11:38:23;13.70;;;12.00;;
34064;SDS011;20339;49.754;20.158;2023-05-24T11:40:56;12.60;;;11.20;;
34064;SDS011;20339;49.754;20.158;2023-05-24T11:43:28;12.80;;;10.90;;
34064;SDS011;20339;49.754;20.158;2023-05-24T11:46:01;13.00;;;10.50;;
34064;SDS011;20339;49.754;20.158;2023-05-24T11:48:34;13.50;;;11.40;;
34064;SDS011;20339;49.754;20.158;2023-05-24T11:51:06;13.50;;;11.50;;
34064;SDS011;20339;49.754;20.158;2023-05-24T11:53:39;12.70;;;10.70;;
34064;SDS011;20339;49.754;20.158;2023-05-24T11:56:11;14.00;;;10.80;;
34064;SDS011;20339;49.754;20.158;2023-05-24T11:58:43;12.60;;;10.90;;
34064;SDS011;20339;49.754;20.158;2023-05-24T12:01:25;11.00;;;9.30;;
34064;SDS011;20339;49.754;20.158;2023-05-24T12:03:57;12.30;;;10.60;;
34064;SDS011;20339;49.754;20.158;2023-05-24T12:06:34;11.00;;;9.40;;
34064;SDS011;20339;49.754;20.158;2023-05-24T12:09:08;11.70;;;10.10;;
34064;SDS011;20339;49.754;20.158;2023-05-24T12:11:42;11.70;;;10.20;;
34064;SDS011;20339;49.754;20.158;2023-05-24T12:14:15;12.90;;;11.00;;
34064;SDS011;20339;49.754;20.158;2023-05-24T12:16:48;11.50;;;9.50;;
34064;SDS011;20339;49.754;20.158;2023-05-24T12:19:24;13.00;;;11.20;;
34064;SDS011;20339;49.754;20.158;2023-05-24T12:22:02;13.80;;;12.00;;
34064;SDS011;20339;49.754;20.158;2023-05-24T12:24:35;15.00;;;12.20;;
34064;SDS011;20339;49.754;20.158;2023-05-24T12:27:08;13.10;;;11.70;;
34064;SDS011;20339;49.754;20.158;2023-05-24T12:29:39;12.50;;;11.10;;
34064;SDS011;20339;49.754;20.158;2023-05-24T12:32:11;13.90;;;12.00;;
34064;SDS011;20339;49.754;20.158;2023-05-24T12:34:43;13.70;;;12.30;;
34064;SDS011;20339;49.754;20.158;2023-05-24T12:37:14;12.70;;;11.40;;
34064;SDS011;20339;49.754;20.158;2023-05-24T12:39:47;14.40;;;12.90;;
34064;SDS011;20339;49.754;20.158;2023-05-24T12:42:21;14.10;;;12.60;;
34064;SDS011;20339;49.754;20.158;2023-05-24T12:44:54;15.10;;;13.50;;
34064;SDS011;20339;49.754;20.158;2023-05-24T12:47:25;16.70;;;15.00;;
34064;SDS011;20339;49.754;20.158;2023-05-24T12:49:56;15.30;;;13.70;;
34064;SDS011;20339;49.754;20.158;2023-05-24T12:52:27;18.20;;;14.60;;
34064;SDS011;20339;49.754;20.158;2023-05-24T12:54:58;16.80;;;15.00;;
34064;SDS011;20339;49.754;20.158;2023-05-24T12:57:30;16.10;;;14.40;;
34064;SDS011;20339;49.754;20.158;2023-05-24T13:00:01;16.40;;;14.70;;
34064;SDS011;20339;49.754;20.158;2023-05-24T13:02:32;17.90;;;16.00;;
34064;SDS011;20339;49.754;20.158;2023-05-24T13:05:04;18.30;;;14.10;;
34064;SDS011;20339;49.754;20.158;2023-05-24T13:07:37;17.20;;;15.40;;
34064;SDS011;20339;49.754;20.158;2023-05-24T13:10:10;17.40;;;15.50;;
34064;SDS011;20339;49.754;20.158;2023-05-24T13:12:42;17.40;;;15.70;;
34064;SDS011;20339;49.754;20.158;2023-05-24T13:15:14;17.10;;;15.40;;
34064;SDS011;20339;49.754;20.158;2023-05-24T13:17:46;17.40;;;15.70;;
34064;SDS011;20339;49.754;20.158;2023-05-24T13:20:18;17.90;;;16.20;;
34064;SDS011;20339;49.754;20.158;2023-05-24T13:22:51;20.10;;;18.20;;
34064;SDS011;20339;49.754;20.158;2023-05-24T13:25:22;17.60;;;15.80;;
34064;SDS011;20339;49.754;20.158;2023-05-24T13:27:54;18.50;;;16.70;;
34064;SDS011;20339;49.754;20.158;2023-05-24T13:30:27;19.00;;;17.00;;
34064;SDS011;20339;49.754;20.158;2023-05-24T13:32:58;19.90;;;17.80;;
34064;SDS011;20339;49.754;20.158;2023-05-24T13:35:31;18.50;;;16.50;;
34064;SDS011;20339;49.754;20.158;2023-05-24T13:38:02;19.80;;;17.80;;
34064;SDS011;20339;49.754;20.158;2023-05-24T13:40:33;19.70;;;17.70;;
34064;SDS011;20339;49.754;20.158;2023-05-24T13:43:05;20.70;;;18.60;;
34064;SDS011;20339;49.754;20.158;2023-05-24T13:45:37;18.00;;;16.20;;
34064;SDS011;20339;49.754;20.158;2023-05-24T13:48:08;18.00;;;16.20;;
34064;SDS011;20339;49.754;20.158;2023-05-24T13:50:40;17.60;;;15.70;;
34064;SDS011;20339;49.754;20.158;2023-05-24T13:53:12;19.00;;;17.10;;
34064;SDS011;20339;49.754;20.158;2023-05-24T13:55:43;19.60;;;17.60;;
34064;SDS011;20339;49.754;20.158;2023-05-24T13:58:15;18.90;;;16.80;;
34064;SDS011;20339;49.754;20.158;2023-05-24T14:00:46;18.70;;;16.70;;
34064;SDS011;20339;49.754;20.158;2023-05-24T14:03:18;20.10;;;18.00;;
34064;SDS011;20339;49.754;20.158;2023-05-24T14:05:50;19.00;;;17.00;;
34064;SDS011;20339;49.754;20.158;2023-05-24T14:08:22;20.20;;;18.00;;
34064;SDS011;20339;49.754;20.158;2023-05-24T14:10:54;18.10;;;16.10;;
34064;SDS011;20339;49.754;20.158;2023-05-24T14:13:26;21.10;;;18.90;;
34064;SDS011;20339;49.754;20.158;2023-05-24T14:15:58;19.30;;;17.30;;
34064;SDS011;20339;49.754;20.158;2023-05-24T14:18:31;19.50;;;17.40;;
34064;SDS011;20339;49.754;20.158;2023-05-24T14:21:04;19.90;;;17.80;;
34064;SDS011;20339;49.754;20.158;2023-05-24T14:23:37;19.70;;;17.70;;
34064;SDS011;20339;49.754;20.158;2023-05-24T14:26:10;20.40;;;18.20;;
34064;SDS011;20339;49.754;20.158;2023-05-24T14:28:43;22.40;;;20.00;;
34064;SDS011;20339;49.754;20.158;2023-05-24T14:31:15;21.30;;;18.10;;
34064;SDS011;20339;49.754;20.158;2023-05-24T14:33:47;20.10;;;18.00;;
34064;SDS011;20339;49.754;20.158;2023-05-24T14:36:19;22.30;;;19.70;;
34064;SDS011;20339;49.754;20.158;2023-05-24T14:38:52;21.50;;;19.20;;
34064;SDS011;20339;49.754;20.158;2023-05-24T14:41:24;20.50;;;18.40;;
34064;SDS011;20339;49.754;20.158;2023-05-24T14:43:57;19.80;;;17.80;;
34064;SDS011;20339;49.754;20.158;2023-05-24T14:46:29;19.60;;;17.60;;
34064;SDS011;20339;49.754;20.158;2023-05-24T14:49:02;20.50;;;18.40;;
34064;SDS011;20339;49.754;20.158;2023-05-24T14:51:36;21.00;;;18.70;;
34064;SDS011;20339;49.754;20.158;2023-05-24T14:54:09;20.60;;;18.30;;
34064;SDS011;20339;49.754;20.158;2023-05-24T14:56:44;19.00;;;17.00;;